sensor_id;sensor_type;location;lat;lon;timestamp;temperature;humidity
47618;DHT22;33336;36.728;-4.414;2022-08-30T00:00:17;27.90;96.80
47618;DHT22;33336;36.728;-4.414;2022-08-30T00:05:40;28.20;96.60
47618;DHT22;33336;36.728;-4.414;2022-08-30T00:10:44;27.80;96.70
47618;DHT22;33336;36.728;-4.414;2022-08-30T00:15:50;27.80;96.80
47618;DHT22;33336;36.728;-4.414;2022-08-30T00:20:53;27.80;96.50
47618;DHT22;33336;36.728;-4.414;2022-08-30T00:26:00;27.80;96.80
47618;DHT22;33336;36.728;-4.414;2022-08-30T00:31:04;27.80;96.70
47618;DHT22;33336;36.728;-4.414;2022-08-30T00:36:08;27.30;96.80
47618;DHT22;33336;36.728;-4.414;2022-08-30T00:41:12;26.90;97.40
47618;DHT22;33336;36.728;-4.414;2022-08-30T00:46:15;26.60;97.70
47618;DHT22;33336;36.728;-4.414;2022-08-30T00:51:18;26.30;98.30
47618;DHT22;33336;36.728;-4.414;2022-08-30T00:56:24;27.10;97.40
47618;DHT22;33336;36.728;-4.414;2022-08-30T01:01:27;27.50;96.70
47618;DHT22;33336;36.728;-4.414;2022-08-30T01:06:31;27.70;96.40
47618;DHT22;33336;36.728;-4.414;2022-08-30T01:11:37;27.50;96.40
47618;DHT22;33336;36.728;-4.414;2022-08-30T01:16:42;27.70;96.30
47618;DHT22;33336;36.728;-4.414;2022-08-30T01:21:48;27.80;96.10
47618;DHT22;33336;36.728;-4.414;2022-08-30T01:26:53;27.80;95.80
47618;DHT22;33336;36.728;-4.414;2022-08-30T01:31:56;27.30;96.40
47618;DHT22;33336;36.728;-4.414;2022-08-30T01:37:00;28.00;96.00
47618;DHT22;33336;36.728;-4.414;2022-08-30T01:42:05;27.80;95.80
47618;DHT22;33336;36.728;-4.414;2022-08-30T01:47:08;27.70;95.70
47618;DHT22;33336;36.728;-4.414;2022-08-30T01:52:12;27.60;95.90
47618;DHT22;33336;36.728;-4.414;2022-08-30T01:57:21;27.30;96.00
47618;DHT22;33336;36.728;-4.414;2022-08-30T02:02:26;27.20;95.90
47618;DHT22;33336;36.728;-4.414;2022-08-30T02:07:31;27.20;95.70
47618;DHT22;33336;36.728;-4.414;2022-08-30T02:12:35;27.90;95.30
47618;DHT22;33336;36.728;-4.414;2022-08-30T02:17:40;27.50;95.40
47618;DHT22;33336;36.728;-4.414;2022-08-30T02:22:43;27.20;95.70
47618;DHT22;33336;36.728;-4.414;2022-08-30T02:27:48;27.60;95.30
47618;DHT22;33336;36.728;-4.414;2022-08-30T02:32:50;28.00;95.00
47618;DHT22;33336;36.728;-4.414;2022-08-30T02:37:53;28.10;94.70
47618;DHT22;33336;36.728;-4.414;2022-08-30T02:42:57;28.20;94.40
47618;DHT22;33336;36.728;-4.414;2022-08-30T02:48:00;28.30;94.30
47618;DHT22;33336;36.728;-4.414;2022-08-30T02:53:03;28.50;93.90
47618;DHT22;33336;36.728;-4.414;2022-08-30T02:58:08;28.00;93.90
47618;DHT22;33336;36.728;-4.414;2022-08-30T03:03:11;28.00;93.60
47618;DHT22;33336;36.728;-4.414;2022-08-30T03:08:14;27.70;94.20
47618;DHT22;33336;36.728;-4.414;2022-08-30T03:13:19;27.80;93.90
47618;DHT22;33336;36.728;-4.414;2022-08-30T03:18:23;28.30;93.20
47618;DHT22;33336;36.728;-4.414;2022-08-30T03:23:26;28.30;93.10
47618;DHT22;33336;36.728;-4.414;2022-08-30T03:28:31;28.50;92.90
47618;DHT22;33336;36.728;-4.414;2022-08-30T03:33:35;28.60;92.60
47618;DHT22;33336;36.728;-4.414;2022-08-30T03:38:38;28.60;92.30
47618;DHT22;33336;36.728;-4.414;2022-08-30T03:43:43;28.50;92.00
47618;DHT22;33336;36.728;-4.414;2022-08-30T03:48:47;28.50;91.90
47618;DHT22;33336;36.728;-4.414;2022-08-30T03:53:51;28.40;91.70
47618;DHT22;33336;36.728;-4.414;2022-08-30T03:58:55;28.20;91.80
47618;DHT22;33336;36.728;-4.414;2022-08-30T04:03:58;28.20;91.90
47618;DHT22;33336;36.728;-4.414;2022-08-30T04:09:01;28.30;91.70
47618;DHT22;33336;36.728;-4.414;2022-08-30T04:14:05;28.10;92.00
47618;DHT22;33336;36.728;-4.414;2022-08-30T04:19:08;28.20;91.70
47618;DHT22;33336;36.728;-4.414;2022-08-30T04:24:12;27.90;91.40
47618;DHT22;33336;36.728;-4.414;2022-08-30T04:29:16;27.60;91.70
47618;DHT22;33336;36.728;-4.414;2022-08-30T04:34:19;28.20;91.40
47618;DHT22;33336;36.728;-4.414;2022-08-30T04:39:22;27.70;91.40
47618;DHT22;33336;36.728;-4.414;2022-08-30T04:44:27;27.70;91.40
47618;DHT22;33336;36.728;-4.414;2022-08-30T04:49:30;27.30;91.20
47618;DHT22;33336;36.728;-4.414;2022-08-30T04:54:33;26.90;91.40
47618;DHT22;33336;36.728;-4.414;2022-08-30T04:59:38;27.00;91.30
47618;DHT22;33336;36.728;-4.414;2022-08-30T05:04:42;27.80;91.00
47618;DHT22;33336;36.728;-4.414;2022-08-30T05:09:59;27.50;93.30
47618;DHT22;33336;36.728;-4.414;2022-08-30T05:15:04;27.60;93.90
47618;DHT22;33336;36.728;-4.414;2022-08-30T05:20:09;27.20;95.30
47618;DHT22;33336;36.728;-4.414;2022-08-30T05:25:12;26.80;95.70
47618;DHT22;33336;36.728;-4.414;2022-08-30T05:30:17;26.30;96.60
47618;DHT22;33336;36.728;-4.414;2022-08-30T05:35:20;26.10;96.00
47618;DHT22;33336;36.728;-4.414;2022-08-30T05:40:23;26.70;95.40
47618;DHT22;33336;36.728;-4.414;2022-08-30T05:45:27;26.90;95.10
47618;DHT22;33336;36.728;-4.414;2022-08-30T05:50:31;27.50;94.20
47618;DHT22;33336;36.728;-4.414;2022-08-30T05:55:34;27.90;93.80
47618;DHT22;33336;36.728;-4.414;2022-08-30T06:00:39;27.40;93.90
47618;DHT22;33336;36.728;-4.414;2022-08-30T06:05:42;27.40;94.20
47618;DHT22;33336;36.728;-4.414;2022-08-30T06:10:45;27.60;94.10
47618;DHT22;33336;36.728;-4.414;2022-08-30T06:15:49;28.20;93.60
47618;DHT22;33336;36.728;-4.414;2022-08-30T06:20:52;28.50;93.20
47618;DHT22;33336;36.728;-4.414;2022-08-30T06:26:02;28.50;93.20
47618;DHT22;33336;36.728;-4.414;2022-08-30T06:31:07;28.70;93.10
47618;DHT22;33336;36.728;-4.414;2022-08-30T06:36:13;28.60;93.30
47618;DHT22;33336;36.728;-4.414;2022-08-30T06:41:18;27.30;94.40
47618;DHT22;33336;36.728;-4.414;2022-08-30T06:46:25;27.70;94.10
47618;DHT22;33336;36.728;-4.414;2022-08-30T06:51:31;28.30;93.60
47618;DHT22;33336;36.728;-4.414;2022-08-30T06:56:35;28.70;93.20
47618;DHT22;33336;36.728;-4.414;2022-08-30T07:01:40;29.00;92.70
47618;DHT22;33336;36.728;-4.414;2022-08-30T07:06:44;29.20;92.50
47618;DHT22;33336;36.728;-4.414;2022-08-30T07:11:47;29.20;92.50
47618;DHT22;33336;36.728;-4.414;2022-08-30T07:16:51;29.10;92.40
47618;DHT22;33336;36.728;-4.414;2022-08-30T07:21:54;29.00;92.90
47618;DHT22;33336;36.728;-4.414;2022-08-30T07:26:57;29.10;92.70
47618;DHT22;33336;36.728;-4.414;2022-08-30T07:32:02;28.80;93.00
47618;DHT22;33336;36.728;-4.414;2022-08-30T07:37:05;29.20;92.30
47618;DHT22;33336;36.728;-4.414;2022-08-30T07:42:08;29.30;92.00
47618;DHT22;33336;36.728;-4.414;2022-08-30T07:47:13;29.10;89.30
47618;DHT22;33336;36.728;-4.414;2022-08-30T07:52:17;29.70;90.40
47618;DHT22;33336;36.728;-4.414;2022-08-30T07:57:19;30.00;90.90
47618;DHT22;33336;36.728;-4.414;2022-08-30T08:02:24;29.80;91.20
47618;DHT22;33336;36.728;-4.414;2022-08-30T08:07:27;29.70;91.90
47618;DHT22;33336;36.728;-4.414;2022-08-30T08:12:31;30.10;91.40
47618;DHT22;33336;36.728;-4.414;2022-08-30T08:17:36;30.30;90.70
47618;DHT22;33336;36.728;-4.414;2022-08-30T08:22:39;30.80;90.00
47618;DHT22;33336;36.728;-4.414;2022-08-30T08:27:42;31.10;88.40
47618;DHT22;33336;36.728;-4.414;2022-08-30T08:32:49;30.80;90.00
47618;DHT22;33336;36.728;-4.414;2022-08-30T08:37:53;30.80;89.80
47618;DHT22;33336;36.728;-4.414;2022-08-30T08:43:01;31.10;90.00
47618;DHT22;33336;36.728;-4.414;2022-08-30T08:48:09;31.10;89.90
47618;DHT22;33336;36.728;-4.414;2022-08-30T08:53:19;30.70;90.10
47618;DHT22;33336;36.728;-4.414;2022-08-30T08:58:42;31.00;90.30
47618;DHT22;33336;36.728;-4.414;2022-08-30T09:03:47;30.90;90.80
47618;DHT22;33336;36.728;-4.414;2022-08-30T09:08:51;29.60;93.00
47618;DHT22;33336;36.728;-4.414;2022-08-30T09:13:54;28.80;94.80
47618;DHT22;33336;36.728;-4.414;2022-08-30T09:18:58;28.00;98.10
47618;DHT22;33336;36.728;-4.414;2022-08-30T09:24:03;28.10;99.30
47618;DHT22;33336;36.728;-4.414;2022-08-30T09:29:16;28.20;99.60
47618;DHT22;33336;36.728;-4.414;2022-08-30T09:34:21;28.30;99.40
47618;DHT22;33336;36.728;-4.414;2022-08-30T09:39:28;28.60;99.90
47618;DHT22;33336;36.728;-4.414;2022-08-30T09:44:36;29.00;98.70
47618;DHT22;33336;36.728;-4.414;2022-08-30T09:49:42;29.30;97.90
47618;DHT22;33336;36.728;-4.414;2022-08-30T09:54:53;28.70;98.80
47618;DHT22;33336;36.728;-4.414;2022-08-30T10:00:03;28.70;98.90
47618;DHT22;33336;36.728;-4.414;2022-08-30T10:05:13;28.70;99.40
47618;DHT22;33336;36.728;-4.414;2022-08-30T10:10:26;28.00;99.90
47618;DHT22;33336;36.728;-4.414;2022-08-30T10:15:33;29.00;99.90
47618;DHT22;33336;36.728;-4.414;2022-08-30T10:20:50;29.50;99.40
47618;DHT22;33336;36.728;-4.414;2022-08-30T10:25:58;29.80;98.90
47618;DHT22;33336;36.728;-4.414;2022-08-30T10:31:08;30.00;98.40
47618;DHT22;33336;36.728;-4.414;2022-08-30T10:36:14;30.30;98.40
47618;DHT22;33336;36.728;-4.414;2022-08-30T10:41:27;31.10;97.50
47618;DHT22;33336;36.728;-4.414;2022-08-30T10:46:38;31.50;96.30
47618;DHT22;33336;36.728;-4.414;2022-08-30T10:51:51;30.70;97.60
47618;DHT22;33336;36.728;-4.414;2022-08-30T10:56:55;31.10;97.30
47618;DHT22;33336;36.728;-4.414;2022-08-30T11:02:18;31.40;97.20
47618;DHT22;33336;36.728;-4.414;2022-08-30T11:07:33;31.80;96.20
47618;DHT22;33336;36.728;-4.414;2022-08-30T11:12:43;32.00;96.60
47618;DHT22;33336;36.728;-4.414;2022-08-30T11:17:57;32.90;95.30
47618;DHT22;33336;36.728;-4.414;2022-08-30T11:23:31;33.40;94.60
47618;DHT22;33336;36.728;-4.414;2022-08-30T11:29:00;34.10;93.80
47618;DHT22;33336;36.728;-4.414;2022-08-30T11:34:05;34.60;93.20
47618;DHT22;33336;36.728;-4.414;2022-08-30T11:39:11;34.80;92.50
47618;DHT22;33336;36.728;-4.414;2022-08-30T11:44:30;35.40;90.90
47618;DHT22;33336;36.728;-4.414;2022-08-30T11:49:49;35.70;90.20
47618;DHT22;33336;36.728;-4.414;2022-08-30T12:00:45;36.50;87.50
47618;DHT22;33336;36.728;-4.414;2022-08-30T12:05:53;35.90;87.40
47618;DHT22;33336;36.728;-4.414;2022-08-30T12:10:59;35.90;87.40
47618;DHT22;33336;36.728;-4.414;2022-08-30T12:16:04;34.50;88.10
47618;DHT22;33336;36.728;-4.414;2022-08-30T12:21:22;33.60;89.50
47618;DHT22;33336;36.728;-4.414;2022-08-30T12:26:32;34.00;88.50
47618;DHT22;33336;36.728;-4.414;2022-08-30T12:31:39;33.80;86.90
47618;DHT22;33336;36.728;-4.414;2022-08-30T12:36:50;33.60;85.90
47618;DHT22;33336;36.728;-4.414;2022-08-30T12:41:55;33.50;86.80
47618;DHT22;33336;36.728;-4.414;2022-08-30T12:47:01;33.20;87.90
47618;DHT22;33336;36.728;-4.414;2022-08-30T12:52:16;32.90;87.20
47618;DHT22;33336;36.728;-4.414;2022-08-30T12:57:39;31.80;90.60
47618;DHT22;33336;36.728;-4.414;2022-08-30T13:02:48;30.90;92.00
47618;DHT22;33336;36.728;-4.414;2022-08-30T13:08:07;31.50;91.90
47618;DHT22;33336;36.728;-4.414;2022-08-30T13:13:26;32.40;90.70
47618;DHT22;33336;36.728;-4.414;2022-08-30T13:18:31;32.90;90.50
47618;DHT22;33336;36.728;-4.414;2022-08-30T13:23:34;32.90;92.80
47618;DHT22;33336;36.728;-4.414;2022-08-30T13:28:47;32.20;94.60
47618;DHT22;33336;36.728;-4.414;2022-08-30T13:33:50;33.20;93.60
47618;DHT22;33336;36.728;-4.414;2022-08-30T13:38:54;32.90;94.10
47618;DHT22;33336;36.728;-4.414;2022-08-30T13:43:59;33.20;93.00
47618;DHT22;33336;36.728;-4.414;2022-08-30T13:49:08;34.20;91.60
47618;DHT22;33336;36.728;-4.414;2022-08-30T13:54:14;33.50;89.90
47618;DHT22;33336;36.728;-4.414;2022-08-30T13:59:19;32.20;93.10
47618;DHT22;33336;36.728;-4.414;2022-08-30T14:04:22;32.20;93.50
47618;DHT22;33336;36.728;-4.414;2022-08-30T14:09:26;30.90;94.80
47618;DHT22;33336;36.728;-4.414;2022-08-30T14:14:30;31.10;95.30
47618;DHT22;33336;36.728;-4.414;2022-08-30T14:19:33;31.50;95.00
47618;DHT22;33336;36.728;-4.414;2022-08-30T14:24:36;32.70;94.20
47618;DHT22;33336;36.728;-4.414;2022-08-30T14:29:40;33.30;93.30
47618;DHT22;33336;36.728;-4.414;2022-08-30T14:34:43;33.40;92.90
47618;DHT22;33336;36.728;-4.414;2022-08-30T14:39:47;33.20;92.70
47618;DHT22;33336;36.728;-4.414;2022-08-30T14:44:51;34.00;91.50
47618;DHT22;33336;36.728;-4.414;2022-08-30T14:50:02;33.30;90.60
47618;DHT22;33336;36.728;-4.414;2022-08-30T14:55:08;31.90;93.80
47618;DHT22;33336;36.728;-4.414;2022-08-30T15:00:14;31.70;94.30
47618;DHT22;33336;36.728;-4.414;2022-08-30T15:05:18;31.90;94.30
47618;DHT22;33336;36.728;-4.414;2022-08-30T15:10:21;31.50;95.10
47618;DHT22;33336;36.728;-4.414;2022-08-30T15:15:25;32.20;93.90
47618;DHT22;33336;36.728;-4.414;2022-08-30T15:20:29;32.50;93.80
47618;DHT22;33336;36.728;-4.414;2022-08-30T15:25:32;32.90;92.80
47618;DHT22;33336;36.728;-4.414;2022-08-30T15:30:36;32.70;93.30
47618;DHT22;33336;36.728;-4.414;2022-08-30T15:35:39;33.20;92.90
47618;DHT22;33336;36.728;-4.414;2022-08-30T15:40:42;33.40;92.30
47618;DHT22;33336;36.728;-4.414;2022-08-30T15:45:47;33.60;92.00
47618;DHT22;33336;36.728;-4.414;2022-08-30T15:50:55;33.30;92.50
47618;DHT22;33336;36.728;-4.414;2022-08-30T15:55:59;33.50;91.60
47618;DHT22;33336;36.728;-4.414;2022-08-30T16:01:03;33.50;90.90
47618;DHT22;33336;36.728;-4.414;2022-08-30T16:06:10;33.10;91.00
47618;DHT22;33336;36.728;-4.414;2022-08-30T16:11:16;32.20;91.50
47618;DHT22;33336;36.728;-4.414;2022-08-30T16:16:21;32.10;91.70
47618;DHT22;33336;36.728;-4.414;2022-08-30T16:21:26;32.80;91.20
47618;DHT22;33336;36.728;-4.414;2022-08-30T16:26:31;33.20;90.80
47618;DHT22;33336;36.728;-4.414;2022-08-30T16:31:36;32.60;91.10
47618;DHT22;33336;36.728;-4.414;2022-08-30T16:36:39;32.20;91.50
47618;DHT22;33336;36.728;-4.414;2022-08-30T16:41:42;32.50;91.60
47618;DHT22;33336;36.728;-4.414;2022-08-30T16:46:47;32.90;91.30
47618;DHT22;33336;36.728;-4.414;2022-08-30T16:51:53;32.80;91.10
47618;DHT22;33336;36.728;-4.414;2022-08-30T16:56:55;32.80;91.20
47618;DHT22;33336;36.728;-4.414;2022-08-30T17:02:00;32.20;91.60
47618;DHT22;33336;36.728;-4.414;2022-08-30T17:07:04;32.70;91.30
47618;DHT22;33336;36.728;-4.414;2022-08-30T17:12:07;32.90;91.20
47618;DHT22;33336;36.728;-4.414;2022-08-30T17:17:11;32.90;91.30
47618;DHT22;33336;36.728;-4.414;2022-08-30T17:22:15;32.00;91.50
47618;DHT22;33336;36.728;-4.414;2022-08-30T17:27:18;32.10;91.60
47618;DHT22;33336;36.728;-4.414;2022-08-30T17:32:22;32.40;91.00
47618;DHT22;33336;36.728;-4.414;2022-08-30T17:37:25;32.00;90.80
47618;DHT22;33336;36.728;-4.414;2022-08-30T17:42:29;32.80;90.50
47618;DHT22;33336;36.728;-4.414;2022-08-30T17:47:34;32.90;89.30
47618;DHT22;33336;36.728;-4.414;2022-08-30T17:52:37;32.30;89.40
47618;DHT22;33336;36.728;-4.414;2022-08-30T17:57:40;32.20;89.10
47618;DHT22;33336;36.728;-4.414;2022-08-30T18:02:44;32.00;89.30
47618;DHT22;33336;36.728;-4.414;2022-08-30T18:07:47;32.00;89.60
47618;DHT22;33336;36.728;-4.414;2022-08-30T18:12:51;32.00;89.50
47618;DHT22;33336;36.728;-4.414;2022-08-30T18:17:55;32.40;89.30
47618;DHT22;33336;36.728;-4.414;2022-08-30T18:23:00;32.30;89.30
47618;DHT22;33336;36.728;-4.414;2022-08-30T18:28:04;32.00;89.50
47618;DHT22;33336;36.728;-4.414;2022-08-30T18:33:08;32.70;89.10
47618;DHT22;33336;36.728;-4.414;2022-08-30T18:38:11;32.90;88.80
47618;DHT22;33336;36.728;-4.414;2022-08-30T18:43:15;33.00;87.50
47618;DHT22;33336;36.728;-4.414;2022-08-30T18:48:19;32.80;82.80
47618;DHT22;33336;36.728;-4.414;2022-08-30T18:53:23;32.50;85.30
47618;DHT22;33336;36.728;-4.414;2022-08-30T18:58:26;33.00;85.10
47618;DHT22;33336;36.728;-4.414;2022-08-30T19:03:30;33.30;84.00
47618;DHT22;33336;36.728;-4.414;2022-08-30T19:08:34;33.40;83.00
47618;DHT22;33336;36.728;-4.414;2022-08-30T19:13:38;33.60;82.00
47618;DHT22;33336;36.728;-4.414;2022-08-30T19:18:42;33.70;80.40
47618;DHT22;33336;36.728;-4.414;2022-08-30T19:23:46;31.80;88.60
47618;DHT22;33336;36.728;-4.414;2022-08-30T19:28:49;29.90;93.30
47618;DHT22;33336;36.728;-4.414;2022-08-30T19:33:54;27.90;97.10
47618;DHT22;33336;36.728;-4.414;2022-08-30T19:38:57;27.20;99.10
47618;DHT22;33336;36.728;-4.414;2022-08-30T19:44:01;28.30;97.60
47618;DHT22;33336;36.728;-4.414;2022-08-30T19:49:05;28.80;96.60
47618;DHT22;33336;36.728;-4.414;2022-08-30T19:54:11;29.20;95.90
47618;DHT22;33336;36.728;-4.414;2022-08-30T19:59:14;29.30;95.90
47618;DHT22;33336;36.728;-4.414;2022-08-30T20:04:18;29.60;95.60
47618;DHT22;33336;36.728;-4.414;2022-08-30T20:09:21;30.00;95.20
47618;DHT22;33336;36.728;-4.414;2022-08-30T20:14:26;30.20;94.80
47618;DHT22;33336;36.728;-4.414;2022-08-30T20:19:30;30.10;94.70
47618;DHT22;33336;36.728;-4.414;2022-08-30T20:24:34;30.10;94.10
47618;DHT22;33336;36.728;-4.414;2022-08-30T20:29:37;30.30;94.00
47618;DHT22;33336;36.728;-4.414;2022-08-30T20:34:43;30.60;93.60
47618;DHT22;33336;36.728;-4.414;2022-08-30T20:39:46;30.40;93.60
47618;DHT22;33336;36.728;-4.414;2022-08-30T20:44:50;30.40;93.80
47618;DHT22;33336;36.728;-4.414;2022-08-30T20:49:54;30.50;93.60
47618;DHT22;33336;36.728;-4.414;2022-08-30T20:54:58;30.50;93.20
47618;DHT22;33336;36.728;-4.414;2022-08-30T21:00:01;30.50;93.30
47618;DHT22;33336;36.728;-4.414;2022-08-30T21:05:08;30.80;92.90
47618;DHT22;33336;36.728;-4.414;2022-08-30T21:10:12;30.70;92.30
47618;DHT22;33336;36.728;-4.414;2022-08-30T21:15:15;30.80;92.30
47618;DHT22;33336;36.728;-4.414;2022-08-30T21:20:19;30.70;92.10
47618;DHT22;33336;36.728;-4.414;2022-08-30T21:25:23;30.80;91.70
47618;DHT22;33336;36.728;-4.414;2022-08-30T21:30:26;31.00;91.60
47618;DHT22;33336;36.728;-4.414;2022-08-30T21:35:30;31.10;91.20
47618;DHT22;33336;36.728;-4.414;2022-08-30T21:40:50;31.20;91.10
47618;DHT22;33336;36.728;-4.414;2022-08-30T21:45:54;31.00;91.00
47618;DHT22;33336;36.728;-4.414;2022-08-30T21:51:04;31.20;90.70
47618;DHT22;33336;36.728;-4.414;2022-08-30T21:56:10;31.00;90.30
47618;DHT22;33336;36.728;-4.414;2022-08-30T22:01:15;31.00;90.50
47618;DHT22;33336;36.728;-4.414;2022-08-30T22:06:20;31.10;90.40
47618;DHT22;33336;36.728;-4.414;2022-08-30T22:11:25;31.20;90.20
47618;DHT22;33336;36.728;-4.414;2022-08-30T22:16:29;31.30;90.00
47618;DHT22;33336;36.728;-4.414;2022-08-30T22:21:34;31.20;89.50
47618;DHT22;33336;36.728;-4.414;2022-08-30T22:26:40;30.80;90.40
47618;DHT22;33336;36.728;-4.414;2022-08-30T22:31:43;30.80;91.40
47618;DHT22;33336;36.728;-4.414;2022-08-30T22:36:48;30.80;91.70
47618;DHT22;33336;36.728;-4.414;2022-08-30T22:41:51;31.00;92.00
47618;DHT22;33336;36.728;-4.414;2022-08-30T22:46:55;30.60;92.60
47618;DHT22;33336;36.728;-4.414;2022-08-30T22:51:59;30.40;93.20
47618;DHT22;33336;36.728;-4.414;2022-08-30T22:57:03;30.20;93.80
47618;DHT22;33336;36.728;-4.414;2022-08-30T23:02:06;30.30;94.40
47618;DHT22;33336;36.728;-4.414;2022-08-30T23:07:11;29.20;96.00
47618;DHT22;33336;36.728;-4.414;2022-08-30T23:12:14;29.40;96.30
47618;DHT22;33336;36.728;-4.414;2022-08-30T23:17:18;29.50;96.80
47618;DHT22;33336;36.728;-4.414;2022-08-30T23:22:22;29.50;96.70
47618;DHT22;33336;36.728;-4.414;2022-08-30T23:27:26;29.60;96.50
47618;DHT22;33336;36.728;-4.414;2022-08-30T23:32:46;29.70;96.30
47618;DHT22;33336;36.728;-4.414;2022-08-30T23:38:08;29.60;96.10
47618;DHT22;33336;36.728;-4.414;2022-08-30T23:43:31;29.70;96.00
47618;DHT22;33336;36.728;-4.414;2022-08-30T23:48:52;29.70;95.90
47618;DHT22;33336;36.728;-4.414;2022-08-30T23:54:13;29.70;95.30
47618;DHT22;33336;36.728;-4.414;2022-08-30T23:59:34;29.40;95.50
